Hlavní strana
METAR-TAF:

METAR-TAF

Letiště :

Redstone Arsenal, Alabama, Spojené státy americké

zeměpisná šířka: 34-40-43N, zeměpisná délka: 086-41-05W, výška: 209 m

Aktuální stav počasí

Zpráva byla vytvořena před 27 minutami, v 09:58 UTC
Severní vítr 4 kt
Teplota 16°C
Vlhkost vzduchu 94%
Tlak 1013 hPa
Viditelnost: 11.3 km
Polojasno ve výšce 1200 ft
Zataženo ve výšce 5000 ft

METAR: KHUA 100958Z AUTO 35004KT 7SM SCT012 OVC050 16/15 A2991 RMK AO2 RAE28 SLP126 P0001 T01560148

Čas: 04:25 (10:25 UTC)


TAF: chybějící

Stav a předpovědi počasí z více než 4 000 letišť (zprávy METAR a TAF).

Červené a žluté tečky na mapě představují dostupné meteorologické stanice.

Když kurzor umístíte na tečku, zobrazí se název stanice.

Pak kliknutím zobrazíte stav a předpověď počasí.

Chcete-li změnit mapu, kliknutím na zelené tlačítko se znaménkem +mapu přiblížíte, kliknutím na zelené tlačítko se znaménkem – mapu oddálíte a kliknutím na zelené šipky přejdete na sousední mapy.


METAR-TAF: